Time;durP1;ratioP1;P1;durP2;ratioP2;P2;SDS_P1;SDS_P2;PMS_P1;PMS_P2;Temp;Humidity;BMP_temperature;BMP_pressure;BME280_temperature;BME280_humidity;BME280_pressure;Samples;Min_cycle;Max_cycle;Signal;HPM_P1;HPM_P2
2023/07/08 00:00:41;;;;;;;14.43;8.55;;;15.90;99.90;;;;;;4840224;29;20077;-76
2023/07/08 00:03:08;;;;;;;14.25;9.13;;;15.90;99.90;;;;;;4840418;29;20057;-75
2023/07/08 00:05:36;;;;;;;12.57;8.32;;;15.90;99.90;;;;;;4824308;29;20050;-77
2023/07/08 00:08:03;;;;;;;15.15;9.63;;;15.90;99.90;;;;;;4840654;29;20176;-78
2023/07/08 00:10:32;;;;;;;10.80;8.27;;;15.90;99.90;;;;;;4840976;29;20575;-77
2023/07/08 00:12:59;;;;;;;11.95;9.23;;;15.90;99.90;;;;;;4840769;29;20050;-78
2023/07/08 00:15:28;;;;;;;12.32;8.93;;;16.00;99.90;;;;;;4840486;29;20137;-78
2023/07/08 00:17:57;;;;;;;12.80;9.00;;;16.00;99.90;;;;;;4840819;29;20057;-75
2023/07/08 00:20:33;;;;;;;14.57;9.50;;;15.90;99.90;;;;;;4840660;29;20090;-75
2023/07/08 00:23:01;;;;;;;13.38;8.88;;;15.90;99.90;;;;;;4840629;29;20065;-78
2023/07/08 00:25:28;;;;;;;11.95;8.77;;;15.90;99.90;;;;;;4841558;29;20049;-76
2023/07/08 00:27:55;;;;;;;14.05;9.30;;;15.90;99.90;;;;;;4841528;29;20083;-73
2023/07/08 00:30:25;;;;;;;11.55;8.65;;;15.90;99.90;;;;;;4858724;29;20410;-78
2023/07/08 00:32:54;;;;;;;14.90;8.70;;;15.90;99.90;;;;;;4851440;29;20053;-77
2023/07/08 00:35:31;;;;;;;13.80;9.20;;;15.90;99.90;;;;;;4881092;29;20057;-78
2023/07/08 00:38:01;;;;;;;13.15;9.18;;;15.90;99.90;;;;;;4867147;29;20045;-75
2023/07/08 00:40:30;;;;;;;12.60;8.65;;;15.80;99.90;;;;;;4866666;29;20042;-77
2023/07/08 00:42:59;;;;;;;13.27;9.55;;;15.60;99.90;;;;;;4864981;29;20569;-77
2023/07/08 00:45:41;;;;;;;16.63;10.85;;;15.50;99.90;;;;;;4840146;29;20057;-77
2023/07/08 00:48:20;;;;;;;15.73;10.27;;;15.40;99.90;;;;;;4839745;29;20042;-77
2023/07/08 00:50:49;;;;;;;18.60;10.02;;;15.40;99.90;;;;;;4839318;29;20038;-76
2023/07/08 00:53:28;;;;;;;18.67;10.23;;;15.40;99.90;;;;;;4839562;29;20120;-77
2023/07/08 00:55:59;;;;;;;12.95;9.55;;;15.40;99.90;;;;;;4823111;29;20091;-76
2023/07/08 00:58:32;;;;;;;12.52;9.10;;;15.40;99.90;;;;;;4839997;29;20038;-78
2023/07/08 01:01:00;;;;;;;13.77;8.63;;;15.40;99.90;;;;;;4839585;29;20125;-76
2023/07/08 01:03:30;;;;;;;13.65;9.35;;;15.50;99.90;;;;;;4823261;29;20054;-76
2023/07/08 01:06:00;;;;;;;15.02;8.95;;;15.40;99.90;;;;;;4839803;29;20061;-77
2023/07/08 01:08:32;;;;;;;14.07;8.23;;;15.60;99.90;;;;;;4823393;29;20533;-78
2023/07/08 01:11:02;;;;;;;16.30;7.72;;;15.50;99.90;;;;;;4819701;29;20066;-79
2023/07/08 01:13:34;;;;;;;14.73;8.77;;;15.50;99.90;;;;;;4822708;29;20111;-78
2023/07/08 01:16:02;;;;;;;11.93;8.73;;;15.50;99.90;;;;;;4819361;29;20274;-75
2023/07/08 01:18:30;;;;;;;12.55;8.30;;;15.50;99.90;;;;;;4843797;29;20054;-78
2023/07/08 01:21:22;;;;;;;12.15;8.50;;;15.40;99.90;;;;;;4826920;29;20042;-77
2023/07/08 01:23:51;;;;;;;14.43;8.95;;;15.40;99.90;;;;;;4825797;29;20099;-73
2023/07/08 01:26:19;;;;;;;13.35;8.88;;;15.30;99.90;;;;;;4844625;29;20039;-76
2023/07/08 01:28:47;;;;;;;13.48;8.20;;;15.30;99.90;;;;;;4833161;29;20073;-75
2023/07/08 01:31:15;;;;;;;18.15;8.48;;;15.30;99.90;;;;;;4848599;29;20400;-76
2023/07/08 01:33:42;;;;;;;13.82;8.65;;;15.30;99.90;;;;;;4839131;29;20046;-77
2023/07/08 01:36:12;;;;;;;14.27;9.52;;;15.20;99.90;;;;;;4838243;29;20075;-75
2023/07/08 01:38:40;;;;;;;13.45;9.18;;;15.10;99.90;;;;;;4839502;29;20053;-76
2023/07/08 01:41:13;;;;;;;14.88;9.63;;;15.00;99.90;;;;;;4823631;29;20050;-75
2023/07/08 01:43:40;;;;;;;13.90;10.10;;;15.00;99.90;;;;;;4845648;29;20305;-79
2023/07/08 01:46:14;;;;;;;14.20;9.75;;;14.90;99.90;;;;;;4841645;29;20099;-77
2023/07/08 01:48:46;;;;;;;17.13;9.23;;;15.00;99.90;;;;;;4829689;29;20102;-76
2023/07/08 01:51:13;;;;;;;12.48;8.65;;;15.10;99.90;;;;;;4832887;29;20436;-78
2023/07/08 01:53:42;;;;;;;12.40;8.13;;;15.10;99.90;;;;;;4827923;29;20106;-77
2023/07/08 01:56:14;;;;;;;11.48;8.45;;;15.10;99.90;;;;;;4844120;29;20384;-78
2023/07/08 01:58:41;;;;;;;15.10;8.52;;;15.00;99.90;;;;;;4826665;29;20106;-77
2023/07/08 02:01:09;;;;;;;20.83;9.00;;;14.90;99.90;;;;;;4825717;29;20046;-76
2023/07/08 02:03:36;;;;;;;13.02;8.80;;;14.90;99.90;;;;;;4842766;29;20046;-76
2023/07/08 02:06:05;;;;;;;12.40;8.73;;;15.00;99.90;;;;;;4824352;29;20103;-75
2023/07/08 02:08:32;;;;;;;12.85;8.32;;;15.00;99.90;;;;;;4824268;29;20042;-75
2023/07/08 02:11:00;;;;;;;15.40;9.20;;;15.00;99.90;;;;;;4810068;29;20058;-76
2023/07/08 02:13:28;;;;;;;13.77;8.45;;;15.00;99.90;;;;;;4825728;29;20561;-78
2023/07/08 02:15:56;;;;;;;11.60;8.35;;;15.00;99.90;;;;;;4808134;29;20076;-76
2023/07/08 02:18:24;;;;;;;13.30;9.07;;;14.90;99.90;;;;;;4807948;29;20046;-78
2023/07/08 02:20:52;;;;;;;15.00;8.48;;;14.90;99.90;;;;;;4827825;29;20113;-78
2023/07/08 02:23:20;;;;;;;16.98;9.45;;;14.80;99.90;;;;;;4815163;29;20061;-74
2023/07/08 02:25:52;;;;;;;12.73;8.88;;;14.80;99.90;;;;;;4814449;29;20058;-75
2023/07/08 02:28:20;;;;;;;17.30;9.60;;;14.80;99.90;;;;;;4821806;29;20134;-76
2023/07/08 02:30:48;;;;;;;15.48;9.25;;;14.80;99.90;;;;;;4854986;29;20050;-75
2023/07/08 02:33:17;;;;;;;13.88;9.00;;;14.80;99.90;;;;;;4857890;29;20105;-77
2023/07/08 02:35:45;;;;;;;14.32;9.10;;;14.80;99.90;;;;;;4854667;29;20299;-75
2023/07/08 02:38:13;;;;;;;14.30;8.98;;;14.70;99.90;;;;;;4853431;29;20046;-78
2023/07/08 02:40:42;;;;;;;15.60;8.48;;;14.80;99.90;;;;;;4855717;29;20046;-76
2023/07/08 02:43:09;;;;;;;13.63;8.52;;;14.80;99.90;;;;;;4849011;29;20054;-77
2023/07/08 02:45:39;;;;;;;13.90;9.38;;;14.60;99.90;;;;;;4827298;29;20049;-78
2023/07/08 02:48:08;;;;;;;16.83;8.45;;;14.70;99.90;;;;;;4825572;29;20046;-75
2023/07/08 02:50:36;;;;;;;13.63;8.85;;;14.60;99.90;;;;;;4848194;29;20050;-75
2023/07/08 02:53:03;;;;;;;19.63;9.65;;;14.50;99.90;;;;;;4847644;29;20061;-77
2023/07/08 02:55:31;;;;;;;13.35;8.70;;;14.40;99.90;;;;;;4826180;29;20412;-77
2023/07/08 02:57:58;;;;;;;13.27;9.25;;;14.40;99.90;;;;;;4825351;29;20061;-76
2023/07/08 03:00:25;;;;;;;14.50;9.23;;;14.40;99.90;;;;;;4826500;29;20125;-78
2023/07/08 03:02:53;;;;;;;12.27;8.15;;;14.40;99.90;;;;;;4835125;29;20065;-75
2023/07/08 03:05:21;;;;;;;16.10;8.90;;;14.40;99.90;;;;;;4826241;29;20062;-75
2023/07/08 03:07:49;;;;;;;12.13;7.80;;;14.40;99.90;;;;;;4829508;29;20164;-77
2023/07/08 03:10:17;;;;;;;11.95;8.05;;;14.50;99.90;;;;;;4815974;29;20052;-75
2023/07/08 03:12:44;;;;;;;14.15;8.55;;;14.60;99.90;;;;;;4814382;29;20046;-74
2023/07/08 03:15:12;;;;;;;12.43;8.30;;;14.60;99.90;;;;;;4821628;29;20068;-74
2023/07/08 03:17:42;;;;;;;14.48;8.85;;;14.50;99.90;;;;;;4836107;29;20058;-75
2023/07/08 03:20:11;;;;;;;21.80;14.88;;;14.50;99.90;;;;;;4807278;29;20056;-76
2023/07/08 03:22:40;;;;;;;16.75;9.27;;;14.50;99.90;;;;;;4807556;29;20054;-75
2023/07/08 03:25:09;;;;;;;14.18;8.35;;;14.40;99.90;;;;;;4806930;29;20477;-77
2023/07/08 03:27:37;;;;;;;12.38;8.63;;;14.40;99.90;;;;;;4814979;29;20047;-77
2023/07/08 03:30:07;;;;;;;15.10;10.48;;;14.40;99.90;;;;;;4838072;29;20137;-76
2023/07/08 03:32:35;;;;;;;18.10;11.00;;;14.50;99.90;;;;;;4846075;29;20105;-77
2023/07/08 03:35:03;;;;;;;14.77;9.93;;;14.60;99.90;;;;;;4859254;29;20402;-77
2023/07/08 03:37:30;;;;;;;18.23;9.52;;;14.70;99.90;;;;;;4847981;29;20053;-80
2023/07/08 03:40:00;;;;;;;14.73;9.38;;;14.70;99.90;;;;;;4831152;29;20086;-77
2023/07/08 03:42:27;;;;;;;16.20;9.98;;;14.70;99.90;;;;;;4826740;29;20447;-78
2023/07/08 03:44:54;;;;;;;14.93;10.88;;;14.80;99.90;;;;;;4829164;29;20526;-76
2023/07/08 03:47:25;;;;;;;15.85;11.25;;;14.80;99.90;;;;;;4842481;29;20053;-76
2023/07/08 03:49:53;;;;;;;15.15;10.90;;;14.90;99.90;;;;;;4814040;29;20154;-75
2023/07/08 03:52:21;;;;;;;15.65;10.60;;;14.90;99.90;;;;;;4830438;29;20050;-77
2023/07/08 03:54:49;;;;;;;22.90;10.57;;;15.00;99.90;;;;;;4829254;29;20043;-75
2023/07/08 03:57:19;;;;;;;21.35;10.60;;;15.10;57.10;;;;;;4825969;29;20085;-77
2023/07/08 03:59:48;;;;;;;13.30;9.95;;;15.20;1.00;;;;;;4827985;29;20046;-75
2023/07/08 04:02:16;;;;;;;17.08;10.15;;;15.20;1.00;;;;;;4844934;29;20045;-74
2023/07/08 04:04:43;;;;;;;19.55;11.18;;;15.30;1.00;;;;;;4826565;29;20064;-76
2023/07/08 04:07:12;;;;;;;15.65;10.10;;;15.80;17.60;;;;;;4842125;29;20110;-75
2023/07/08 04:09:39;;;;;;;14.98;9.40;;;16.90;1.00;;;;;;4842875;29;20135;-76
2023/07/08 04:12:07;;;;;;;14.77;7.90;;;18.30;99.90;;;;;;4841444;29;20038;-74
2023/07/08 04:14:36;;;;;;;13.13;8.05;;;19.70;1.00;;;;;;4825122;29;20081;-76
2023/07/08 04:17:03;;;;;;;11.23;7.15;;;20.80;99.90;;;;;;4845147;29;20133;-76
2023/07/08 04:19:30;;;;;;;11.57;7.15;;;21.80;1.00;;;;;;4845886;29;20045;-76
2023/07/08 04:21:58;;;;;;;14.55;7.57;;;22.70;1.00;;;;;;4839587;29;20066;-77
2023/07/08 04:24:25;;;;;;;16.35;8.48;;;23.50;99.90;;;;;;4846532;29;20114;-74
2023/07/08 04:26:52;;;;;;;12.98;8.05;;;24.10;98.40;;;;;;4847518;29;20074;-75
2023/07/08 04:29:21;;;;;;;11.38;7.45;;;23.80;62.90;;;;;;4856206;29;20490;-76
2023/07/08 04:31:50;;;;;;;11.07;6.75;;;24.50;16.40;;;;;;4841981;29;20050;-77
2023/07/08 04:34:18;;;;;;;12.43;7.30;;;24.30;1.00;;;;;;4858548;29;20069;-78
2023/07/08 04:36:45;;;;;;;11.88;6.95;;;25.10;1.00;;;;;;4848299;29;20041;-77
2023/07/08 04:39:13;;;;;;;12.20;7.38;;;26.20;1.00;;;;;;4839680;29;20081;-75
2023/07/08 04:41:43;;;;;;;11.35;7.80;;;26.30;1.00;;;;;;4839521;29;20570;-75
2023/07/08 04:44:11;;;;;;;9.98;6.70;;;26.60;1.00;;;;;;4839330;29;20536;-77
2023/07/08 04:46:42;;;;;;;12.18;6.80;;;26.40;1.00;;;;;;4840226;29;20424;-76
2023/07/08 04:49:11;;;;;;;11.13;7.57;;;26.70;1.00;;;;;;4839620;29;20076;-75
2023/07/08 04:51:38;;;;;;;14.93;7.95;;;26.80;1.00;;;;;;4839498;29;20136;-75
2023/07/08 04:54:06;;;;;;;10.50;7.32;;;26.70;1.00;;;;;;4839364;29;20053;-76
2023/07/08 04:56:39;;;;;;;11.27;6.60;;;27.20;1.00;;;;;;4839138;29;20080;-76
2023/07/08 04:59:07;;;;;;;17.75;7.15;;;27.70;1.00;;;;;;4839316;29;20457;-77
2023/07/08 05:01:34;;;;;;;13.23;7.55;;;28.00;1.00;;;;;;4839837;29;20068;-75
2023/07/08 05:04:02;;;;;;;13.85;8.35;;;28.00;1.00;;;;;;4839705;29;20110;-76
2023/07/08 05:06:30;;;;;;;9.93;7.40;;;28.70;1.00;;;;;;4839605;29;20064;-76
2023/07/08 05:08:58;;;;;;;13.27;7.38;;;28.50;1.00;;;;;;4839923;29;20069;-78
2023/07/08 05:11:26;;;;;;;13.77;6.93;;;28.70;1.00;;;;;;4825066;29;20079;-77
2023/07/08 05:13:53;;;;;;;10.25;7.97;;;29.70;1.00;;;;;;4842786;29;20046;-77
2023/07/08 05:16:20;;;;;;;11.25;8.60;;;29.90;1.00;;;;;;4839986;29;20038;-75
2023/07/08 05:18:48;;;;;;;10.73;7.78;;;30.00;1.00;;;;;;4838955;29;20062;-76
2023/07/08 05:21:17;;;;;;;13.60;9.90;;;30.30;1.00;;;;;;4839757;29;20038;-77
2023/07/08 05:23:46;;;;;;;12.43;8.38;;;29.50;1.00;;;;;;4843360;29;20034;-78
2023/07/08 05:26:13;;;;;;;11.82;7.47;;;29.70;1.00;;;;;;4842823;29;20069;-77
2023/07/08 05:28:41;;;;;;;11.13;7.97;;;30.10;1.00;;;;;;4857881;29;20049;-77
2023/07/08 05:31:08;;;;;;;13.57;8.48;;;30.30;1.00;;;;;;4872432;29;20087;-78
2023/07/08 05:33:36;;;;;;;9.80;8.13;;;30.50;1.00;;;;;;4858984;29;20049;-78
2023/07/08 05:36:04;;;;;;;13.15;8.55;;;31.30;1.00;;;;;;4851859;29;20106;-78
2023/07/08 05:38:32;;;;;;;13.23;10.02;;;31.50;1.00;;;;;;4853084;29;20053;-77
2023/07/08 05:41:00;;;;;;;18.20;10.57;;;32.00;1.00;;;;;;4852019;29;20106;-76
2023/07/08 05:43:28;;;;;;;14.63;8.77;;;32.50;1.00;;;;;;4852734;29;20042;-78
2023/07/08 05:45:59;;;;;;;11.55;8.48;;;32.40;1.00;;;;;;4856684;29;20042;-77
2023/07/08 05:48:26;;;;;;;12.95;9.18;;;32.50;1.00;;;;;;4859116;29;20298;-76
2023/07/08 05:50:54;;;;;;;12.57;9.43;;;33.10;1.00;;;;;;4855963;29;20057;-75
2023/07/08 05:53:21;;;;;;;16.08;9.98;;;33.10;1.00;;;;;;4853414;29;20075;-78
2023/07/08 05:55:49;;;;;;;14.00;9.82;;;33.20;1.00;;;;;;4855742;29;20052;-79
2023/07/08 05:58:18;;;;;;;12.13;9.15;;;33.20;1.00;;;;;;4857390;29;20046;-78
2023/07/08 06:00:45;;;;;;;13.43;9.35;;;33.50;1.00;;;;;;4843128;29;20081;-76
2023/07/08 06:03:13;;;;;;;15.50;10.45;;;33.80;1.00;;;;;;4843199;29;20474;-75
2023/07/08 06:05:40;;;;;;;13.75;9.60;;;34.10;1.00;;;;;;4854027;29;20050;-76
2023/07/08 06:08:08;;;;;;;15.05;9.77;;;33.80;1.00;;;;;;4850406;29;20130;-75
2023/07/08 06:10:42;;;;;;;11.85;8.88;;;33.00;1.00;;;;;;4829430;29;20088;-75
2023/07/08 06:13:09;;;;;;;11.50;9.18;;;32.30;1.00;;;;;;4845238;29;20087;-78
2023/07/08 06:15:37;;;;;;;14.55;9.82;;;32.20;1.00;;;;;;4846371;29;20054;-76
2023/07/08 06:18:05;;;;;;;12.48;9.00;;;32.60;1.00;;;;;;4842870;29;20453;-76
2023/07/08 06:20:32;;;;;;;14.55;9.65;;;33.10;1.00;;;;;;4843194;29;20555;-76
2023/07/08 06:22:59;;;;;;;13.20;8.57;;;33.00;1.00;;;;;;4843924;29;20050;-76
2023/07/08 06:25:27;;;;;;;14.73;9.40;;;32.90;1.00;;;;;;4843086;29;20046;-77
2023/07/08 06:27:54;;;;;;;15.68;10.00;;;32.60;1.00;;;;;;4844917;29;20042;-80
2023/07/08 06:30:21;;;;;;;11.73;9.43;;;32.20;1.00;;;;;;4861185;29;20106;-75
2023/07/08 06:32:50;;;;;;;14.73;9.57;;;31.80;1.00;;;;;;4860691;29;20045;-78
2023/07/08 06:35:19;;;;;;;16.15;9.80;;;31.50;1.00;;;;;;4860827;29;20049;-75
2023/07/08 06:37:46;;;;;;;16.25;9.68;;;31.20;1.00;;;;;;4860500;29;20121;-77
2023/07/08 06:40:14;;;;;;;15.02;10.02;;;30.50;1.00;;;;;;4859438;29;20661;-76
2023/07/08 06:42:41;;;;;;;21.63;12.77;;;30.00;1.00;;;;;;4860221;29;20571;-75
2023/07/08 06:45:25;;;;;;;16.80;11.02;;;29.60;1.00;;;;;;4809480;29;20058;-76
2023/07/08 06:47:53;;;;;;;18.33;13.30;;;29.20;1.00;;;;;;4829291;29;20491;-77
2023/07/08 06:50:21;;;;;;;16.60;9.63;;;28.80;1.00;;;;;;4841358;29;20049;-77
2023/07/08 06:52:48;;;;;;;16.55;11.20;;;28.40;1.00;;;;;;4841477;29;20150;-76
2023/07/08 06:55:16;;;;;;;14.52;10.00;;;28.20;1.00;;;;;;4841782;29;20046;-77
2023/07/08 06:57:43;;;;;;;18.88;11.30;;;28.10;1.00;;;;;;4841476;29;20407;-77
2023/07/08 07:00:12;;;;;;;15.68;10.70;;;27.90;1.00;;;;;;4841121;29;20091;-75
2023/07/08 07:02:39;;;;;;;15.43;9.30;;;27.80;1.00;;;;;;4841074;29;20046;-78
2023/07/08 07:05:09;;;;;;;14.48;9.07;;;27.70;1.00;;;;;;4824610;29;20074;-75
2023/07/08 07:07:36;;;;;;;14.73;9.25;;;27.50;1.00;;;;;;4841491;29;20401;-77
2023/07/08 07:10:04;;;;;;;12.00;8.50;;;27.40;1.00;;;;;;4840669;29;20065;-75
2023/07/08 07:12:31;;;;;;;13.82;9.40;;;27.10;1.00;;;;;;4824333;29;20057;-77
2023/07/08 07:14:59;;;;;;;15.23;9.05;;;26.40;1.00;;;;;;4840988;29;20049;-76
2023/07/08 07:17:26;;;;;;;15.02;9.15;;;25.60;1.00;;;;;;4841250;29;20499;-76
2023/07/08 07:19:54;;;;;;;12.68;8.75;;;25.60;1.00;;;;;;4824962;29;20046;-74
2023/07/08 07:22:23;;;;;;;15.32;9.35;;;25.70;1.00;;;;;;4843360;29;20037;-75
2023/07/08 07:24:50;;;;;;;11.55;8.20;;;25.50;1.00;;;;;;4840783;29;20084;-76
2023/07/08 07:27:17;;;;;;;12.18;8.02;;;25.60;1.00;;;;;;4841282;29;20498;-77
2023/07/08 07:29:46;;;;;;;12.45;8.63;;;25.80;1.00;;;;;;4854281;29;20109;-75
2023/07/08 07:32:15;;;;;;;14.30;10.15;;;25.90;1.00;;;;;;4859341;29;20090;-76
2023/07/08 07:34:41;;;;;;;13.15;8.85;;;25.70;1.00;;;;;;4860107;29;20091;-77
2023/07/08 07:37:12;;;;;;;12.68;9.48;;;26.00;1.00;;;;;;4859719;29;20076;-77
2023/07/08 07:39:42;;;;;;;14.77;9.32;;;26.20;1.00;;;;;;4859187;29;20048;-75
2023/07/08 07:42:10;;;;;;;14.02;9.43;;;26.30;1.00;;;;;;4858988;29;20041;-75
2023/07/08 07:44:39;;;;;;;18.40;10.18;;;26.50;1.00;;;;;;4844294;29;20090;-77
2023/07/08 07:47:08;;;;;;;18.67;9.20;;;26.50;1.00;;;;;;4840774;29;20045;-74
2023/07/08 07:49:35;;;;;;;11.15;7.95;;;26.70;1.00;;;;;;4841188;29;20046;-77
2023/07/08 07:52:03;;;;;;;13.80;8.02;;;26.50;1.00;;;;;;4840534;29;20042;-76
2023/07/08 07:54:30;;;;;;;13.98;7.88;;;26.40;1.00;;;;;;4841101;29;20134;-77
2023/07/08 07:56:58;;;;;;;17.05;8.52;;;26.10;1.00;;;;;;4840952;29;20439;-77
2023/07/08 07:59:26;;;;;;;14.38;8.65;;;26.40;1.00;;;;;;4840938;29;20046;-76
2023/07/08 08:01:53;;;;;;;16.42;9.40;;;26.80;1.00;;;;;;4842040;29;20046;-77
2023/07/08 08:04:21;;;;;;;14.65;9.60;;;26.90;1.00;;;;;;4829471;29;20118;-75
2023/07/08 08:06:48;;;;;;;11.27;8.57;;;27.00;1.00;;;;;;4846525;29;20049;-78
2023/07/08 08:09:15;;;;;;;13.93;8.80;;;27.00;1.00;;;;;;4844478;29;20049;-76
2023/07/08 08:11:43;;;;;;;16.13;9.88;;;27.10;1.00;;;;;;4841688;29;20133;-77
2023/07/08 08:14:11;;;;;;;20.90;12.32;;;27.30;1.00;;;;;;4840317;29;20054;-74
2023/07/08 08:16:39;;;;;;;12.32;8.55;;;27.40;1.00;;;;;;4846427;29;20075;-73
2023/07/08 08:19:06;;;;;;;10.77;7.70;;;27.20;1.00;;;;;;4855993;29;20075;-76
2023/07/08 08:21:33;;;;;;;13.07;7.43;;;26.70;1.00;;;;;;4848277;29;20053;-74
2023/07/08 08:24:01;;;;;;;13.77;8.13;;;26.50;1.00;;;;;;4845693;29;20093;-75
2023/07/08 08:26:28;;;;;;;14.23;7.38;;;26.60;1.00;;;;;;4848788;29;20060;-75
2023/07/08 08:28:56;;;;;;;11.45;7.40;;;26.80;1.00;;;;;;4844094;29;20125;-75
2023/07/08 08:31:25;;;;;;;12.18;7.57;;;26.40;1.00;;;;;;4847520;29;20066;-76
2023/07/08 08:33:52;;;;;;;10.88;7.45;;;26.40;1.00;;;;;;4842942;29;20098;-74
2023/07/08 08:36:20;;;;;;;12.93;8.20;;;26.70;1.00;;;;;;4842808;29;20048;-75
2023/07/08 08:38:48;;;;;;;10.07;7.82;;;26.80;1.00;;;;;;4844865;29;20551;-77
2023/07/08 08:41:18;;;;;;;11.15;7.63;;;26.80;1.00;;;;;;4844949;29;20053;-73
2023/07/08 08:43:49;;;;;;;12.32;7.30;;;27.10;1.00;;;;;;4839042;29;20050;-76
2023/07/08 08:46:28;;;;;;;13.07;7.90;;;27.00;1.00;;;;;;4832355;29;20047;-76
2023/07/08 08:49:03;;;;;;;8.90;7.40;;;26.90;1.00;;;;;;4834862;29;20075;-77
2023/07/08 08:51:32;;;;;;;10.98;7.28;;;27.20;1.00;;;;;;4833295;29;20058;-76
2023/07/08 08:54:01;;;;;;;12.05;6.88;;;27.30;1.00;;;;;;4831846;29;20047;-75
2023/07/08 08:56:31;;;;;;;10.95;6.82;;;27.60;1.00;;;;;;4833826;29;20053;-75
2023/07/08 08:59:05;;;;;;;10.27;7.85;;;27.60;1.00;;;;;;4828292;29;20053;-76
2023/07/08 09:01:34;;;;;;;12.77;8.20;;;27.70;1.00;;;;;;4828320;29;20054;-77
2023/07/08 09:04:06;;;;;;;13.15;7.63;;;28.00;1.00;;;;;;4822641;29;20115;-76
2023/07/08 09:06:36;;;;;;;14.38;7.53;;;28.30;1.00;;;;;;4822901;29;20050;-77
2023/07/08 09:09:16;;;;;;;10.93;7.78;;;28.50;1.00;;;;;;4822018;29;20046;-75
2023/07/08 09:11:52;;;;;;;12.63;8.00;;;28.50;1.00;;;;;;4821178;29;20078;-76
2023/07/08 09:14:25;;;;;;;11.93;7.28;;;28.10;1.00;;;;;;4805027;29;20042;-76
2023/07/08 09:17:06;;;;;;;13.77;7.63;;;28.30;1.00;;;;;;4822009;29;20050;-77
2023/07/08 09:19:37;;;;;;;10.57;6.90;;;28.40;1.00;;;;;;4840033;29;20071;-75
2023/07/08 09:22:07;;;;;;;11.48;7.32;;;28.60;1.00;;;;;;4839156;29;20586;-77
2023/07/08 09:24:42;;;;;;;10.30;7.18;;;28.80;1.00;;;;;;4839506;29;20052;-76
2023/07/08 09:27:10;;;;;;;11.13;7.05;;;29.10;1.00;;;;;;4839821;29;20069;-76
2023/07/08 09:29:37;;;;;;;18.73;9.50;;;29.00;1.00;;;;;;4851312;29;20394;-76
2023/07/08 09:32:16;;;;;;;10.07;6.75;;;29.30;1.00;;;;;;4857305;29;20042;-76
2023/07/08 09:34:47;;;;;;;7.82;5.95;;;29.10;1.00;;;;;;4858358;29;20430;-75
2023/07/08 09:37:27;;;;;;;14.55;7.63;;;28.50;1.00;;;;;;4847861;29;20106;-76
2023/07/08 09:39:56;;;;;;;17.02;7.35;;;28.40;1.00;;;;;;4839091;29;20129;-76
2023/07/08 09:42:26;;;;;;;9.73;7.18;;;28.50;1.00;;;;;;4839571;29;20059;-74
2023/07/08 09:44:57;;;;;;;10.07;7.68;;;28.70;1.00;;;;;;4823097;29;20054;-75
2023/07/08 09:47:30;;;;;;;11.23;7.95;;;28.60;1.00;;;;;;4821098;29;20129;-77
2023/07/08 09:49:59;;;;;;;12.55;7.53;;;28.90;1.00;;;;;;4804101;29;20078;-78
2023/07/08 09:52:26;;;;;;;8.50;7.28;;;29.40;1.00;;;;;;4822284;29;20148;-77
2023/07/08 09:54:53;;;;;;;10.73;7.35;;;29.60;1.00;;;;;;4820970;29;20046;-77
2023/07/08 09:57:29;;;;;;;14.80;9.07;;;29.80;1.00;;;;;;4819474;29;20050;-77
2023/07/08 10:00:02;;;;;;;11.35;7.25;;;30.10;1.00;;;;;;4820796;29;20407;-78
2023/07/08 10:02:41;;;;;;;8.75;6.63;;;30.20;1.00;;;;;;4833173;29;20075;-75
2023/07/08 10:05:15;;;;;;;10.13;7.35;;;30.70;1.00;;;;;;4838703;29;20590;-72
2023/07/08 10:07:42;;;;;;;10.48;7.18;;;30.80;1.00;;;;;;4840461;29;20050;-74
2023/07/08 10:10:16;;;;;;;13.80;7.65;;;30.70;1.00;;;;;;4842038;29;20094;-74
2023/07/08 10:12:49;;;;;;;8.95;6.70;;;30.20;1.00;;;;;;4826634;29;20042;-75
2023/07/08 10:15:22;;;;;;;10.27;6.38;;;30.10;1.00;;;;;;4841937;29;20549;-76
2023/07/08 10:17:50;;;;;;;9.73;7.07;;;30.10;1.00;;;;;;4846007;29;20042;-76
2023/07/08 10:20:19;;;;;;;10.18;6.80;;;29.90;1.00;;;;;;4864344;29;20054;-78
2023/07/08 10:23:00;;;;;;;10.95;7.38;;;30.00;1.00;;;;;;4865499;29;20045;-75
2023/07/08 10:25:34;;;;;;;10.55;7.45;;;29.90;1.00;;;;;;4847456;29;20081;-77
2023/07/08 10:28:13;;;;;;;9.55;7.25;;;29.80;1.00;;;;;;4825554;29;20114;-77
2023/07/08 10:30:53;;;;;;;15.77;12.52;;;29.80;1.00;;;;;;4841693;29;20053;-75
2023/07/08 10:33:47;;;;;;;11.52;9.48;;;29.50;1.00;;;;;;4841865;29;20058;-76
2023/07/08 10:36:24;;;;;;;13.45;8.95;;;29.40;1.00;;;;;;4842248;29;20468;-76
2023/07/08 10:39:06;;;;;;;11.70;8.18;;;29.60;1.00;;;;;;4842501;29;20550;-77
2023/07/08 10:41:44;;;;;;;12.80;8.35;;;29.70;1.00;;;;;;4825337;29;20046;-75
2023/07/08 10:44:18;;;;;;;13.07;8.10;;;29.60;1.00;;;;;;4834562;29;20053;-76
2023/07/08 10:46:54;;;;;;;13.93;8.45;;;29.70;1.00;;;;;;4828828;29;20084;-73
2023/07/08 10:49:53;;;;;;;10.27;8.35;;;29.70;1.00;;;;;;4829937;29;20111;-75
2023/07/08 10:52:33;;;;;;;9.38;7.07;;;29.80;1.00;;;;;;4824907;29;20126;-76
2023/07/08 10:55:15;;;;;;;10.93;6.70;;;29.50;1.00;;;;;;4825290;29;20050;-74
2023/07/08 10:58:09;;;;;;;9.70;7.00;;;29.30;1.00;;;;;;4824214;29;20484;-77
2023/07/08 11:00:43;;;;;;;10.32;6.32;;;29.10;1.00;;;;;;4815290;29;20074;-75
2023/07/08 11:03:33;;;;;;;9.50;7.07;;;28.90;1.00;;;;;;4825555;29;20061;-76
2023/07/08 11:06:08;;;;;;;13.50;7.28;;;28.80;1.00;;;;;;4842545;29;20049;-73
2023/07/08 11:08:41;;;;;;;10.20;7.38;;;28.70;1.00;;;;;;4841153;29;20046;-76
2023/07/08 11:11:18;;;;;;;12.32;7.10;;;28.80;1.00;;;;;;4841251;29;20137;-76
2023/07/08 11:13:50;;;;;;;8.80;6.78;;;29.10;1.00;;;;;;4842626;29;20056;-75
2023/07/08 11:16:25;;;;;;;11.10;7.30;;;29.30;1.00;;;;;;4842695;29;20526;-75
2023/07/08 11:18:57;;;;;;;14.15;7.82;;;29.50;1.00;;;;;;4841413;29;20430;-77
2023/07/08 11:21:36;;;;;;;10.02;7.25;;;29.30;1.00;;;;;;4841581;29;20062;-77
2023/07/08 11:24:10;;;;;;;8.75;7.22;;;29.10;1.00;;;;;;4841868;29;20212;-74
2023/07/08 11:26:44;;;;;;;10.60;6.80;;;29.20;1.00;;;;;;4828659;29;20057;-74
2023/07/08 11:29:18;;;;;;;14.38;11.43;;;29.20;1.00;;;;;;4846834;29;20396;-76
2023/07/08 11:31:47;;;;;;;9.02;6.68;;;29.30;1.00;;;;;;4841218;29;20046;-76
2023/07/08 11:34:17;;;;;;;8.73;6.90;;;29.40;1.00;;;;;;4842064;29;20480;-74
2023/07/08 11:36:48;;;;;;;9.20;6.03;;;29.70;1.00;;;;;;4842125;29;20045;-75
2023/07/08 11:39:32;;;;;;;9.48;6.05;;;29.80;1.00;;;;;;4842381;29;20439;-77
2023/07/08 11:42:18;;;;;;;8.52;5.60;;;29.70;1.00;;;;;;4843259;29;20045;-74
2023/07/08 11:44:49;;;;;;;;;;;29.70;1.00;;;;;;4828295;29;20099;-77
2023/07/08 11:47:20;;;;;;;8.90;7.50;;;29.60;1.00;;;;;;4825610;29;19924;-77
2023/07/08 11:49:49;;;;;;;7.40;6.53;;;29.60;1.00;;;;;;4823164;29;20070;-75
2023/07/08 11:52:21;;;;;;;7.53;6.13;;;29.40;1.00;;;;;;4822948;29;20161;-74
2023/07/08 11:54:55;;;;;;;10.35;5.95;;;29.30;1.00;;;;;;4823131;29;20107;-78
2023/07/08 11:57:29;;;;;;;7.50;5.60;;;29.20;1.00;;;;;;4822415;29;20133;-75
2023/07/08 12:00:18;;;;;;;7.65;6.00;;;29.00;1.00;;;;;;4822394;29;20049;-75
2023/07/08 12:02:55;;;;;;;9.27;6.90;;;29.00;1.00;;;;;;4837186;29;20377;-75
2023/07/08 12:05:36;;;;;;;9.98;7.20;;;29.10;1.00;;;;;;4842089;29;20056;-76
2023/07/08 12:08:14;;;;;;;9.32;5.40;;;29.40;1.00;;;;;;4822500;29;20129;-77
2023/07/08 12:10:43;;;;;;;9.88;6.50;;;29.40;1.00;;;;;;4822951;29;20034;-76
2023/07/08 12:13:14;;;;;;;9.65;6.18;;;29.30;1.00;;;;;;4823948;29;20042;-77
2023/07/08 12:15:42;;;;;;;11.27;7.63;;;29.30;1.00;;;;;;4824588;29;20046;-77
2023/07/08 12:18:15;;;;;;;9.85;8.25;;;29.40;1.00;;;;;;4823513;29;20051;-77
2023/07/08 12:20:46;;;;;;;12.93;9.55;;;29.50;1.00;;;;;;4823361;29;20559;-73
2023/07/08 12:23:19;;;;;;;12.00;7.53;;;29.40;1.00;;;;;;4825083;29;20098;-74
2023/07/08 12:25:47;;;;;;;9.85;6.05;;;29.30;1.00;;;;;;4850451;29;20050;-78
2023/07/08 12:28:16;;;;;;;8.95;5.63;;;29.10;1.00;;;;;;4862017;29;20046;-78
2023/07/08 12:30:45;;;;;;;7.57;5.50;;;28.90;1.00;;;;;;4878477;29;20086;-78
2023/07/08 12:33:14;;;;;;;7.78;5.90;;;28.90;1.00;;;;;;4879284;29;20090;-76
2023/07/08 12:35:45;;;;;;;11.25;7.15;;;29.00;1.00;;;;;;4875955;29;20054;-76
2023/07/08 12:38:20;;;;;;;10.35;7.28;;;29.30;1.00;;;;;;4858937;29;20053;-76
2023/07/08 12:40:47;;;;;;;;;;;29.50;1.00;;;;;;4858965;29;20129;-77
2023/07/08 12:43:16;;;;;;;10.48;7.88;;;29.60;1.00;;;;;;4855254;29;19931;-77
2023/07/08 12:45:44;;;;;;;6.68;5.57;;;29.80;1.00;;;;;;4840210;29;20081;-76
2023/07/08 12:48:11;;;;;;;9.07;5.88;;;30.00;1.00;;;;;;4839996;29;20109;-76
2023/07/08 12:50:38;;;;;;;11.90;5.97;;;29.90;1.00;;;;;;4843994;29;20061;-75
2023/07/08 12:53:09;;;;;;;8.13;6.07;;;29.80;1.00;;;;;;4832990;29;20046;-77
2023/07/08 12:55:40;;;;;;;6.03;5.13;;;29.80;1.00;;;;;;4851950;29;20068;-75
2023/07/08 12:58:10;;;;;;;5.88;5.28;;;29.40;1.00;;;;;;4836545;29;20053;-74
2023/07/08 13:00:41;;;;;;;6.53;4.97;;;29.10;1.00;;;;;;4851454;29;20054;-79